Makaweli, Hawaii
Current Conditions -  °F | °C
As of 11:56 AM on Thursday 23 Oct 2014 (Local Time) from PHBK Reporting Station
Heavy Rain Heavy Rain  
Wind Chill: 77°   Ceiling: 3300
Heat Index: 78°   Visibility: 0.75mi
Dew Point: 76°   Wind: 3mph
Humidity: 96%   Direction: 120°ESE
Pressure: 30.05"   Gusts: NA
Location:  21.9°N, 159.65°W
Report Text: PHBK 232156Z AUTO 12003KT 3/4SM +RA BR FEW019 BKN033 OVC046 25/24 A3005 RMK AO2 RAB17 SLP179 P0021 T02500244
Loading
Personal Weather Stations






























Interactive Weather Map
Tropical Storm Tracking
New forecast layout! Learn more

10-Day Weather Forecast

Advertisements
Track Severe Weather on mobile